Airfield :
LOGIN :

Register | Disclaimer

   EN    FR    IT 

 










Legend :    VFR   Marginal VFR   IFR   Intensive IFR   Very Intensive IFR
Visi :
Ceiling :
>= 8 km
>= 3000ft
5 to 8 km
1000 to 3000 ft
1500m to 5 km
500 to 1000 ft
800 to 1500m
200 to 500 ft
< 800m
< 200 ft
Symbols :   Thunderstorms  Fog  Heavy snow  Heavy precipitations  Wind > 20 kt
SIGMETs :     Misc.  Thunderstorms  Icing  Turbulence  Mountain Waves  Volcanic Ashes






- Airport Elevation : 70 ft
- IATA code : WBG


ETNS - Schleswig

CURRENT METAR :
  • 080920Z 07003KT 0100 R05/0350N FZFG SCT045 M02/M02 Q1004 BLACKRED RED BECMG BLU+

EXPIRED METARs :
  • 080845Z 04002KT 0100 R05/0350N FZFG BKN045 M04/M04 Q1004 BLACKRED RED BECMG BLU+
  • 080820Z 06003KT 0500 R05/0600N FZFG BKN045 M02/M03 Q1004 BLACKRED RED BECMG BLU+
  • 080741Z 06003KT 0500 R05/0500N FZFG BKN032 M05/M06 Q1004 BLACKRED RED BECMG BLU+
  • 080720Z 06002KT 0500 R05/0500N FZFG BKN032 M04/M05 Q1003 BLACKRED BLU+ TEMPO RED
  • 080701Z 09002KT 0800 FZFG BKN032 M03/M03 Q1003 BLACKAMB BLU+ TEMPO RED

TAF TAF ETNS
Valid from the 08 at 09:00 until the 08 at 18:00 UTC


080819Z 0809/0818 VRB03KT 0800 FZFG SCT001 BKN040
BECMG 0809/0811 05005KT 8000 NSW FEW025 BY ETGL



MET'MAP, your aeronautical weather chart ! - Copyright ORBIFLY December 2007 - Disclaimer

ORBIFLY MET'MAP TEAM :

Programming & Development : Alexandra Zaïnal
Original concept : Baudouin d'Aumeries
Technical & hardware support : Manuel Goepfert
Assistance : Marc-Olivier Méhu




SOURCES & CREDITS :

   NOAA